sensor_id;sensor_type;location;lat;lon;timestamp;pressure;altitude;pressure_sealevel;temperature
34901;BMP280;21112;51.976;5.660;2023-11-19T00:02:31;99810.72;;;13.48
34901;BMP280;21112;51.976;5.660;2023-11-19T00:05:01;99817.63;;;13.44
34901;BMP280;21112;51.976;5.660;2023-11-19T00:07:30;99809.38;;;13.41
34901;BMP280;21112;51.976;5.660;2023-11-19T00:09:57;99793.13;;;13.46
34901;BMP280;21112;51.976;5.660;2023-11-19T00:12:30;99801.28;;;13.51
34901;BMP280;21112;51.976;5.660;2023-11-19T00:15:02;99786.16;;;13.51
34901;BMP280;21112;51.976;5.660;2023-11-19T00:17:30;99777.75;;;13.51
34901;BMP280;21112;51.976;5.660;2023-11-19T00:19:57;99777.81;;;13.49
34901;BMP280;21112;51.976;5.660;2023-11-19T00:22:23;99773.94;;;13.42
34901;BMP280;21112;51.976;5.660;2023-11-19T00:24:51;99774.72;;;13.44
34901;BMP280;21112;51.976;5.660;2023-11-19T00:27:18;99766.03;;;13.50
34901;BMP280;21112;51.976;5.660;2023-11-19T00:29:48;99775.66;;;13.59
34901;BMP280;21112;51.976;5.660;2023-11-19T00:32:17;99765.72;;;13.56
34901;BMP280;21112;51.976;5.660;2023-11-19T00:34:44;99773.22;;;13.57
34901;BMP280;21112;51.976;5.660;2023-11-19T00:37:11;99774.78;;;13.60
34901;BMP280;21112;51.976;5.660;2023-11-19T00:39:37;99779.75;;;13.61
34901;BMP280;21112;51.976;5.660;2023-11-19T00:42:04;99768.91;;;13.59
34901;BMP280;21112;51.976;5.660;2023-11-19T00:44:31;99780.88;;;13.56
34901;BMP280;21112;51.976;5.660;2023-11-19T00:46:59;99772.41;;;13.57
34901;BMP280;21112;51.976;5.660;2023-11-19T00:49:26;99772.47;;;13.55
34901;BMP280;21112;51.976;5.660;2023-11-19T00:51:52;99762.47;;;13.54
34901;BMP280;21112;51.976;5.660;2023-11-19T00:54:19;99752.44;;;13.52
34901;BMP280;21112;51.976;5.660;2023-11-19T00:56:46;99739.97;;;13.49
34901;BMP280;21112;51.976;5.660;2023-11-19T00:59:12;99748.41;;;13.48
34901;BMP280;21112;51.976;5.660;2023-11-19T01:01:39;99735.75;;;13.50
34901;BMP280;21112;51.976;5.660;2023-11-19T01:04:07;99732.31;;;13.51
34901;BMP280;21112;51.976;5.660;2023-11-19T01:06:34;99738.94;;;13.53
34901;BMP280;21112;51.976;5.660;2023-11-19T01:09:01;99741.38;;;13.55
34901;BMP280;21112;51.976;5.660;2023-11-19T01:11:28;99742.34;;;13.52
34901;BMP280;21112;51.976;5.660;2023-11-19T01:13:55;99736.41;;;13.53
34901;BMP280;21112;51.976;5.660;2023-11-19T01:16:22;99730.53;;;13.53
34901;BMP280;21112;51.976;5.660;2023-11-19T01:18:48;99739.00;;;13.52
34901;BMP280;21112;51.976;5.660;2023-11-19T01:21:16;99756.66;;;13.52
34901;BMP280;21112;51.976;5.660;2023-11-19T01:23:43;99760.16;;;13.49
34901;BMP280;21112;51.976;5.660;2023-11-19T01:26:10;99754.13;;;13.52
34901;BMP280;21112;51.976;5.660;2023-11-19T01:28:38;99744.88;;;13.52
34901;BMP280;21112;51.976;5.660;2023-11-19T01:31:10;99734.53;;;13.57
34901;BMP280;21112;51.976;5.660;2023-11-19T01:33:38;99731.28;;;13.55
34901;BMP280;21112;51.976;5.660;2023-11-19T01:36:05;99726.78;;;13.44
34901;BMP280;21112;51.976;5.660;2023-11-19T01:38:34;99721.84;;;13.41
34901;BMP280;21112;51.976;5.660;2023-11-19T01:41:02;99721.13;;;13.39
34901;BMP280;21112;51.976;5.660;2023-11-19T01:43:33;99738.13;;;13.36
34901;BMP280;21112;51.976;5.660;2023-11-19T01:46:00;99736.19;;;13.41
34901;BMP280;21112;51.976;5.660;2023-11-19T01:48:27;99723.94;;;13.50
34901;BMP280;21112;51.976;5.660;2023-11-19T01:50:55;99718.97;;;13.49
34901;BMP280;21112;51.976;5.660;2023-11-19T01:53:22;99731.00;;;13.44
34901;BMP280;21112;51.976;5.660;2023-11-19T01:55:50;99730.09;;;13.45
34901;BMP280;21112;51.976;5.660;2023-11-19T01:58:18;99736.94;;;13.43
34901;BMP280;21112;51.976;5.660;2023-11-19T02:00:44;99719.44;;;13.40
34901;BMP280;21112;51.976;5.660;2023-11-19T02:03:11;99716.00;;;13.41
34901;BMP280;21112;51.976;5.660;2023-11-19T02:05:39;99715.13;;;13.42
34901;BMP280;21112;51.976;5.660;2023-11-19T02:08:06;99696.06;;;13.36
34901;BMP280;21112;51.976;5.660;2023-11-19T02:10:33;99704.59;;;13.34
34901;BMP280;21112;51.976;5.660;2023-11-19T02:13:02;99703.09;;;13.30
34901;BMP280;21112;51.976;5.660;2023-11-19T02:15:30;99710.00;;;13.26
34901;BMP280;21112;51.976;5.660;2023-11-19T02:17:57;99710.00;;;13.26
34901;BMP280;21112;51.976;5.660;2023-11-19T02:20:24;99712.69;;;13.23
34901;BMP280;21112;51.976;5.660;2023-11-19T02:22:51;99712.09;;;13.18
34901;BMP280;21112;51.976;5.660;2023-11-19T02:25:22;99713.06;;;13.16
34901;BMP280;21112;51.976;5.660;2023-11-19T02:27:56;99736.72;;;13.13
34901;BMP280;21112;51.976;5.660;2023-11-19T02:35:48;99730.78;;;12.97
34901;BMP280;21112;51.976;5.660;2023-11-19T02:38:15;99725.78;;;12.96
34901;BMP280;21112;51.976;5.660;2023-11-19T02:40:42;99730.97;;;12.93
34901;BMP280;21112;51.976;5.660;2023-11-19T02:43:10;99729.53;;;12.87
34901;BMP280;21112;51.976;5.660;2023-11-19T02:45:36;99732.72;;;12.91
34901;BMP280;21112;51.976;5.660;2023-11-19T02:48:04;99741.19;;;12.90
34901;BMP280;21112;51.976;5.660;2023-11-19T02:50:31;99737.97;;;12.86
34901;BMP280;21112;51.976;5.660;2023-11-19T02:52:58;99736.69;;;12.78
34901;BMP280;21112;51.976;5.660;2023-11-19T02:55:26;99730.97;;;12.74
34901;BMP280;21112;51.976;5.660;2023-11-19T02:57:55;99738.53;;;12.74
34901;BMP280;21112;51.976;5.660;2023-11-19T03:00:25;99734.41;;;12.73
34901;BMP280;21112;51.976;5.660;2023-11-19T03:03:00;99737.28;;;12.66
34901;BMP280;21112;51.976;5.660;2023-11-19T03:05:35;99728.84;;;12.67
34901;BMP280;21112;51.976;5.660;2023-11-19T03:08:02;99714.22;;;12.56
34901;BMP280;21112;51.976;5.660;2023-11-19T03:10:28;99715.84;;;12.57
34901;BMP280;21112;51.976;5.660;2023-11-19T03:12:55;99722.28;;;12.63
34901;BMP280;21112;51.976;5.660;2023-11-19T03:15:22;99719.94;;;12.60
34901;BMP280;21112;51.976;5.660;2023-11-19T03:17:50;99722.34;;;12.61
34901;BMP280;21112;51.976;5.660;2023-11-19T03:20:18;99725.31;;;12.52
34901;BMP280;21112;51.976;5.660;2023-11-19T03:22:46;99731.50;;;12.45
34901;BMP280;21112;51.976;5.660;2023-11-19T03:25:13;99736.16;;;12.36
34901;BMP280;21112;51.976;5.660;2023-11-19T03:27:39;99744.88;;;12.29
34901;BMP280;21112;51.976;5.660;2023-11-19T03:30:08;99748.94;;;12.31
34901;BMP280;21112;51.976;5.660;2023-11-19T03:32:35;99743.56;;;12.20
34901;BMP280;21112;51.976;5.660;2023-11-19T03:35:05;99741.88;;;12.21
34901;BMP280;21112;51.976;5.660;2023-11-19T03:37:33;99737.25;;;12.12
34901;BMP280;21112;51.976;5.660;2023-11-19T03:39:59;99718.84;;;12.10
34901;BMP280;21112;51.976;5.660;2023-11-19T03:42:26;99731.59;;;12.07
34901;BMP280;21112;51.976;5.660;2023-11-19T03:44:53;99725.81;;;12.05
34901;BMP280;21112;51.976;5.660;2023-11-19T03:47:20;99728.72;;;11.96
34901;BMP280;21112;51.976;5.660;2023-11-19T03:49:48;99723.06;;;11.91
34901;BMP280;21112;51.976;5.660;2023-11-19T03:52:17;99719.59;;;11.93
34901;BMP280;21112;51.976;5.660;2023-11-19T03:54:44;99719.84;;;11.87
34901;BMP280;21112;51.976;5.660;2023-11-19T03:57:12;99717.63;;;11.81
34901;BMP280;21112;51.976;5.660;2023-11-19T03:59:41;99717.63;;;11.81
34901;BMP280;21112;51.976;5.660;2023-11-19T04:02:07;99721.81;;;11.81
34901;BMP280;21112;51.976;5.660;2023-11-19T04:04:34;99737.88;;;11.78
34901;BMP280;21112;51.976;5.660;2023-11-19T04:07:01;99734.72;;;11.73
34901;BMP280;21112;51.976;5.660;2023-11-19T04:09:30;99723.28;;;11.66
34901;BMP280;21112;51.976;5.660;2023-11-19T04:11:58;99721.81;;;11.62
34901;BMP280;21112;51.976;5.660;2023-11-19T04:14:26;99727.53;;;11.66
34901;BMP280;21112;51.976;5.660;2023-11-19T04:16:55;99726.16;;;11.59
34901;BMP280;21112;51.976;5.660;2023-11-19T04:19:22;99735.19;;;11.63
34901;BMP280;21112;51.976;5.660;2023-11-19T04:21:48;99745.34;;;11.61
34901;BMP280;21112;51.976;5.660;2023-11-19T04:24:16;99747.19;;;11.56
34901;BMP280;21112;51.976;5.660;2023-11-19T04:26:45;99739.00;;;11.51
34901;BMP280;21112;51.976;5.660;2023-11-19T04:29:12;99748.13;;;11.54
34901;BMP280;21112;51.976;5.660;2023-11-19T04:31:39;99748.34;;;11.69
34901;BMP280;21112;51.976;5.660;2023-11-19T04:34:05;99749.38;;;11.64
34901;BMP280;21112;51.976;5.660;2023-11-19T04:36:33;99754.56;;;11.61
34901;BMP280;21112;51.976;5.660;2023-11-19T04:39:00;99748.59;;;11.63
34901;BMP280;21112;51.976;5.660;2023-11-19T04:41:27;99757.81;;;11.63
34901;BMP280;21112;51.976;5.660;2023-11-19T04:43:55;99747.19;;;11.56
34901;BMP280;21112;51.976;5.660;2023-11-19T04:46:23;99749.06;;;11.51
34901;BMP280;21112;51.976;5.660;2023-11-19T04:48:51;99741.47;;;11.53
34901;BMP280;21112;51.976;5.660;2023-11-19T04:51:18;99740.53;;;11.55
34901;BMP280;21112;51.976;5.660;2023-11-19T04:53:45;99752.94;;;11.60
34901;BMP280;21112;51.976;5.660;2023-11-19T04:56:11;99740.41;;;11.58
34901;BMP280;21112;51.976;5.660;2023-11-19T04:58:38;99739.75;;;11.53
34901;BMP280;21112;51.976;5.660;2023-11-19T05:01:13;99739.84;;;11.52
34901;BMP280;21112;51.976;5.660;2023-11-19T05:03:41;99746.78;;;11.45
34901;BMP280;21112;51.976;5.660;2023-11-19T05:06:08;99742.78;;;11.41
34901;BMP280;21112;51.976;5.660;2023-11-19T05:08:35;99746.28;;;11.37
34901;BMP280;21112;51.976;5.660;2023-11-19T05:11:02;99740.19;;;11.43
34901;BMP280;21112;51.976;5.660;2023-11-19T05:13:31;99748.56;;;11.43
34901;BMP280;21112;51.976;5.660;2023-11-19T05:15:57;99756.84;;;11.45
34901;BMP280;21112;51.976;5.660;2023-11-19T05:18:25;99761.88;;;11.45
34901;BMP280;21112;51.976;5.660;2023-11-19T05:20:52;99762.53;;;11.50
34901;BMP280;21112;51.976;5.660;2023-11-19T05:23:19;99750.16;;;11.46
34901;BMP280;21112;51.976;5.660;2023-11-19T05:25:46;99753.81;;;11.59
34901;BMP280;21112;51.976;5.660;2023-11-19T05:28:13;99756.56;;;11.53
34901;BMP280;21112;51.976;5.660;2023-11-19T05:30:40;99749.13;;;11.50
34901;BMP280;21112;51.976;5.660;2023-11-19T05:33:07;99754.97;;;11.50
34901;BMP280;21112;51.976;5.660;2023-11-19T05:35:36;99758.38;;;11.49
34901;BMP280;21112;51.976;5.660;2023-11-19T05:38:02;99753.47;;;11.46
34901;BMP280;21112;51.976;5.660;2023-11-19T05:40:29;99751.63;;;11.50
34901;BMP280;21112;51.976;5.660;2023-11-19T05:42:56;99757.22;;;11.58
34901;BMP280;21112;51.976;5.660;2023-11-19T05:45:22;99752.94;;;11.60
34901;BMP280;21112;51.976;5.660;2023-11-19T05:47:49;99751.22;;;11.60
34901;BMP280;21112;51.976;5.660;2023-11-19T05:50:17;99755.41;;;11.61
34901;BMP280;21112;51.976;5.660;2023-11-19T05:52:45;99751.22;;;11.60
34901;BMP280;21112;51.976;5.660;2023-11-19T05:55:12;99761.28;;;11.60
34901;BMP280;21112;51.976;5.660;2023-11-19T05:57:39;99759.88;;;11.53
34901;BMP280;21112;51.976;5.660;2023-11-19T06:00:07;99757.34;;;11.53
34901;BMP280;21112;51.976;5.660;2023-11-19T06:02:36;99762.25;;;11.58
34901;BMP280;21112;51.976;5.660;2023-11-19T06:05:05;99760.13;;;11.47
34901;BMP280;21112;51.976;5.660;2023-11-19T06:07:32;99768.69;;;11.43
34901;BMP280;21112;51.976;5.660;2023-11-19T06:10:00;99765.22;;;11.46
34901;BMP280;21112;51.976;5.660;2023-11-19T06:12:28;99752.03;;;11.41
34901;BMP280;21112;51.976;5.660;2023-11-19T06:14:56;99757.00;;;11.42
34901;BMP280;21112;51.976;5.660;2023-11-19T06:17:22;99760.44;;;11.40
34901;BMP280;21112;51.976;5.660;2023-11-19T06:19:49;99763.06;;;11.37
34901;BMP280;21112;51.976;5.660;2023-11-19T06:22:16;99762.09;;;11.41
34901;BMP280;21112;51.976;5.660;2023-11-19T06:24:43;99774.94;;;11.33
34901;BMP280;21112;51.976;5.660;2023-11-19T06:27:11;99770.19;;;11.27
34901;BMP280;21112;51.976;5.660;2023-11-19T06:29:38;99754.38;;;11.24
34901;BMP280;21112;51.976;5.660;2023-11-19T06:32:06;99760.47;;;11.18
34901;BMP280;21112;51.976;5.660;2023-11-19T06:34:33;99768.66;;;11.23
34901;BMP280;21112;51.976;5.660;2023-11-19T06:37:00;99752.84;;;11.21
34901;BMP280;21112;51.976;5.660;2023-11-19T06:39:28;99772.19;;;11.19
34901;BMP280;21112;51.976;5.660;2023-11-19T06:41:55;99772.75;;;11.26
34901;BMP280;21112;51.976;5.660;2023-11-19T06:44:24;99786.91;;;11.28
34901;BMP280;21112;51.976;5.660;2023-11-19T06:46:50;99782.44;;;11.35
34901;BMP280;21112;51.976;5.660;2023-11-19T06:49:17;99790.81;;;11.35
34901;BMP280;21112;51.976;5.660;2023-11-19T06:51:44;99792.94;;;11.24
34901;BMP280;21112;51.976;5.660;2023-11-19T06:54:11;99790.31;;;11.27
34901;BMP280;21112;51.976;5.660;2023-11-19T06:56:39;99795.44;;;11.24
34901;BMP280;21112;51.976;5.660;2023-11-19T06:59:06;99788.16;;;11.18
34901;BMP280;21112;51.976;5.660;2023-11-19T07:01:37;99804.06;;;11.19
34901;BMP280;21112;51.976;5.660;2023-11-19T07:04:06;99803.19;;;11.20
34901;BMP280;21112;51.976;5.660;2023-11-19T07:06:34;99810.53;;;11.24
34901;BMP280;21112;51.976;5.660;2023-11-19T07:09:02;99815.31;;;11.30
34901;BMP280;21112;51.976;5.660;2023-11-19T07:11:35;99810.16;;;11.33
34901;BMP280;21112;51.976;5.660;2023-11-19T07:14:03;99820.53;;;11.26
34901;BMP280;21112;51.976;5.660;2023-11-19T07:16:29;99816.50;;;11.22
34901;BMP280;21112;51.976;5.660;2023-11-19T07:18:57;99816.56;;;11.20
34901;BMP280;21112;51.976;5.660;2023-11-19T07:21:25;99812.41;;;11.19
34901;BMP280;21112;51.976;5.660;2023-11-19T07:23:53;99820.81;;;11.18
34901;BMP280;21112;51.976;5.660;2023-11-19T07:26:20;99820.97;;;11.15
34901;BMP280;21112;51.976;5.660;2023-11-19T07:28:47;99824.09;;;11.20
34901;BMP280;21112;51.976;5.660;2023-11-19T07:31:17;99832.34;;;11.24
34901;BMP280;21112;51.976;5.660;2023-11-19T07:33:44;99830.56;;;11.27
34901;BMP280;21112;51.976;5.660;2023-11-19T07:36:13;99835.31;;;11.33
34901;BMP280;21112;51.976;5.660;2023-11-19T07:38:39;99847.78;;;11.36
34901;BMP280;21112;51.976;5.660;2023-11-19T07:41:07;99837.41;;;11.44
34901;BMP280;21112;51.976;5.660;2023-11-19T07:43:39;99833.78;;;11.51
34901;BMP280;21112;51.976;5.660;2023-11-19T07:46:10;99838.47;;;11.60
34901;BMP280;21112;51.976;5.660;2023-11-19T07:48:38;99835.91;;;11.61
34901;BMP280;21112;51.976;5.660;2023-11-19T07:51:05;99838.78;;;11.72
34901;BMP280;21112;51.976;5.660;2023-11-19T07:53:33;99841.00;;;11.80
34901;BMP280;21112;51.976;5.660;2023-11-19T07:56:04;99832.97;;;11.92
34901;BMP280;21112;51.976;5.660;2023-11-19T07:58:31;99835.38;;;11.93
34901;BMP280;21112;51.976;5.660;2023-11-19T08:00:58;99831.88;;;11.97
34901;BMP280;21112;51.976;5.660;2023-11-19T08:03:24;99832.66;;;11.98
34901;BMP280;21112;51.976;5.660;2023-11-19T08:05:55;99828.41;;;12.00
34901;BMP280;21112;51.976;5.660;2023-11-19T08:08:24;99824.31;;;11.97
34901;BMP280;21112;51.976;5.660;2023-11-19T08:10:52;99834.63;;;11.91
34901;BMP280;21112;51.976;5.660;2023-11-19T08:13:21;99828.78;;;11.91
34901;BMP280;21112;51.976;5.660;2023-11-19T08:15:48;99826.19;;;11.92
34901;BMP280;21112;51.976;5.660;2023-11-19T08:18:18;99830.16;;;11.98
34901;BMP280;21112;51.976;5.660;2023-11-19T08:20:45;99837.03;;;11.94
34901;BMP280;21112;51.976;5.660;2023-11-19T08:23:15;99839.53;;;11.94
34901;BMP280;21112;51.976;5.660;2023-11-19T08:25:44;99835.88;;;12.01
34901;BMP280;21112;51.976;5.660;2023-11-19T08:28:12;99842.56;;;12.02
34901;BMP280;21112;51.976;5.660;2023-11-19T08:30:39;99840.81;;;12.04
34901;BMP280;21112;51.976;5.660;2023-11-19T08:33:08;99832.38;;;12.05
34901;BMP280;21112;51.976;5.660;2023-11-19T08:35:34;99837.66;;;11.99
34901;BMP280;21112;51.976;5.660;2023-11-19T08:38:01;99843.44;;;12.01
34901;BMP280;21112;51.976;5.660;2023-11-19T08:40:28;99845.19;;;12.19
34901;BMP280;21112;51.976;5.660;2023-11-19T08:42:55;99836.53;;;12.25
34901;BMP280;21112;51.976;5.660;2023-11-19T08:45:24;99846.25;;;12.34
34901;BMP280;21112;51.976;5.660;2023-11-19T08:47:56;99848.69;;;12.35
34901;BMP280;21112;51.976;5.660;2023-11-19T08:50:23;99846.19;;;12.35
34901;BMP280;21112;51.976;5.660;2023-11-19T08:52:50;99852.50;;;12.44
34901;BMP280;21112;51.976;5.660;2023-11-19T08:55:17;99857.44;;;12.47
34901;BMP280;21112;51.976;5.660;2023-11-19T08:57:44;99846.31;;;12.51
34901;BMP280;21112;51.976;5.660;2023-11-19T09:00:12;99867.72;;;12.42
34901;BMP280;21112;51.976;5.660;2023-11-19T09:02:44;99847.88;;;12.35
34901;BMP280;21112;51.976;5.660;2023-11-19T09:05:12;99851.22;;;12.35
34901;BMP280;21112;51.976;5.660;2023-11-19T09:07:39;99851.03;;;12.40
34901;BMP280;21112;51.976;5.660;2023-11-19T09:10:13;99842.50;;;12.42
34901;BMP280;21112;51.976;5.660;2023-11-19T09:12:40;99838.56;;;12.55
34901;BMP280;21112;51.976;5.660;2023-11-19T09:15:09;99840.00;;;12.61
34901;BMP280;21112;51.976;5.660;2023-11-19T09:17:36;99843.31;;;12.61
34901;BMP280;21112;51.976;5.660;2023-11-19T09:20:06;99840.88;;;12.60
34901;BMP280;21112;51.976;5.660;2023-11-19T09:22:37;99839.38;;;12.56
34901;BMP280;21112;51.976;5.660;2023-11-19T09:25:06;99840.94;;;12.58
34901;BMP280;21112;51.976;5.660;2023-11-19T09:27:36;99849.66;;;12.70
34901;BMP280;21112;51.976;5.660;2023-11-19T09:30:07;99838.84;;;12.68
34901;BMP280;21112;51.976;5.660;2023-11-19T09:32:38;99837.88;;;12.70
34901;BMP280;21112;51.976;5.660;2023-11-19T09:35:08;99845.78;;;12.81
34901;BMP280;21112;51.976;5.660;2023-11-19T09:37:38;99839.53;;;12.71
34901;BMP280;21112;51.976;5.660;2023-11-19T09:40:06;99832.22;;;12.65
34901;BMP280;21112;51.976;5.660;2023-11-19T09:42:40;99828.28;;;12.78
34901;BMP280;21112;51.976;5.660;2023-11-19T09:45:13;99842.41;;;13.01
34901;BMP280;21112;51.976;5.660;2023-11-19T09:47:45;99827.50;;;13.13
34901;BMP280;21112;51.976;5.660;2023-11-19T09:50:17;99833.28;;;13.15
34901;BMP280;21112;51.976;5.660;2023-11-19T09:52:46;99825.53;;;13.20
34901;BMP280;21112;51.976;5.660;2023-11-19T09:55:13;99830.47;;;13.21
34901;BMP280;21112;51.976;5.660;2023-11-19T09:57:52;99825.09;;;13.29
34901;BMP280;21112;51.976;5.660;2023-11-19T10:00:20;99834.44;;;13.27
34901;BMP280;21112;51.976;5.660;2023-11-19T10:02:48;99828.84;;;13.20
34901;BMP280;21112;51.976;5.660;2023-11-19T10:05:19;99825.44;;;13.21
34901;BMP280;21112;51.976;5.660;2023-11-19T10:07:48;99838.22;;;13.18
34901;BMP280;21112;51.976;5.660;2023-11-19T10:10:16;99826.19;;;13.23
34901;BMP280;21112;51.976;5.660;2023-11-19T10:12:47;99809.63;;;13.18
34901;BMP280;21112;51.976;5.660;2023-11-19T10:15:19;99819.19;;;13.11
34901;BMP280;21112;51.976;5.660;2023-11-19T10:17:46;99816.69;;;13.11
34901;BMP280;21112;51.976;5.660;2023-11-19T10:20:13;99811.56;;;13.13
34901;BMP280;21112;51.976;5.660;2023-11-19T10:22:41;99802.97;;;13.17
34901;BMP280;21112;51.976;5.660;2023-11-19T10:25:21;99811.19;;;13.20
34901;BMP280;21112;51.976;5.660;2023-11-19T10:27:51;99803.91;;;13.14
34901;BMP280;21112;51.976;5.660;2023-11-19T10:30:22;99802.72;;;13.04
34901;BMP280;21112;51.976;5.660;2023-11-19T10:33:04;99806.88;;;13.05
34901;BMP280;21112;51.976;5.660;2023-11-19T10:35:32;99811.59;;;13.30
34901;BMP280;21112;51.976;5.660;2023-11-19T10:38:01;99806.41;;;13.33
34901;BMP280;21112;51.976;5.660;2023-11-19T10:40:40;99801.94;;;13.38
34901;BMP280;21112;51.976;5.660;2023-11-19T10:43:07;99798.91;;;13.48
34901;BMP280;21112;51.976;5.660;2023-11-19T10:45:34;99790.72;;;13.60
34901;BMP280;21112;51.976;5.660;2023-11-19T10:48:02;99784.06;;;13.59
34901;BMP280;21112;51.976;5.660;2023-11-19T10:50:32;99790.66;;;13.62
34901;BMP280;21112;51.976;5.660;2023-11-19T10:53:01;99784.72;;;13.63
34901;BMP280;21112;51.976;5.660;2023-11-19T10:55:35;99798.91;;;13.65
34901;BMP280;21112;51.976;5.660;2023-11-19T10:58:04;99785.38;;;13.83
34901;BMP280;21112;51.976;5.660;2023-11-19T11:00:37;99788.56;;;13.87
34901;BMP280;21112;51.976;5.660;2023-11-19T11:03:10;99783.13;;;13.94
34901;BMP280;21112;51.976;5.660;2023-11-19T11:05:37;99789.19;;;14.07
34901;BMP280;21112;51.976;5.660;2023-11-19T11:08:09;99771.34;;;14.10
34901;BMP280;21112;51.976;5.660;2023-11-19T11:10:42;99792.75;;;14.03
34901;BMP280;21112;51.976;5.660;2023-11-19T11:13:10;99782.63;;;14.20
34901;BMP280;21112;51.976;5.660;2023-11-19T11:15:41;99780.59;;;13.94
34901;BMP280;21112;51.976;5.660;2023-11-19T11:18:09;99782.78;;;13.68
34901;BMP280;21112;51.976;5.660;2023-11-19T11:20:36;99785.03;;;13.57
34901;BMP280;21112;51.976;5.660;2023-11-19T11:23:36;99787.53;;;13.57
34901;BMP280;21112;51.976;5.660;2023-11-19T11:29:03;99788.50;;;13.71
34901;BMP280;21112;51.976;5.660;2023-11-19T11:31:36;99787.84;;;13.68
34901;BMP280;21112;51.976;5.660;2023-11-19T11:34:15;99801.19;;;13.70
34901;BMP280;21112;51.976;5.660;2023-11-19T11:36:53;99782.38;;;13.60
34901;BMP280;21112;51.976;5.660;2023-11-19T11:39:24;99781.81;;;13.53
34901;BMP280;21112;51.976;5.660;2023-11-19T11:45:01;99774.19;;;14.04
34901;BMP280;21112;51.976;5.660;2023-11-19T11:50:54;99769.28;;;14.18
34901;BMP280;21112;51.976;5.660;2023-11-19T11:53:25;99767.75;;;14.14
34901;BMP280;21112;51.976;5.660;2023-11-19T11:55:57;99769.88;;;14.54
34901;BMP280;21112;51.976;5.660;2023-11-19T11:58:32;99777.28;;;14.57
34901;BMP280;21112;51.976;5.660;2023-11-19T12:01:01;99760.81;;;14.35
34901;BMP280;21112;51.976;5.660;2023-11-19T12:03:32;99768.00;;;14.10
34901;BMP280;21112;51.976;5.660;2023-11-19T12:05:59;99766.72;;;13.86
34901;BMP280;21112;51.976;5.660;2023-11-19T12:08:27;99760.16;;;13.66
34901;BMP280;21112;51.976;5.660;2023-11-19T12:10:57;99765.19;;;13.66
34901;BMP280;21112;51.976;5.660;2023-11-19T12:13:42;99741.81;;;13.95
34901;BMP280;21112;51.976;5.660;2023-11-19T12:16:10;99766.50;;;13.90
34901;BMP280;21112;51.976;5.660;2023-11-19T12:18:39;99766.50;;;13.90
34901;BMP280;21112;51.976;5.660;2023-11-19T12:21:09;99762.78;;;13.80
34901;BMP280;21112;51.976;5.660;2023-11-19T12:23:44;99762.19;;;13.75
34901;BMP280;21112;51.976;5.660;2023-11-19T12:26:36;99766.75;;;13.69
34901;BMP280;21112;51.976;5.660;2023-11-19T12:29:03;99755.28;;;13.79
34901;BMP280;21112;51.976;5.660;2023-11-19T12:31:31;99769.38;;;14.15
34901;BMP280;21112;51.976;5.660;2023-11-19T12:34:05;99754.97;;;14.02
34901;BMP280;21112;51.976;5.660;2023-11-19T12:36:33;99750.28;;;13.94
34901;BMP280;21112;51.976;5.660;2023-11-19T12:39:00;99758.44;;;13.99
34901;BMP280;21112;51.976;5.660;2023-11-19T12:41:27;99761.91;;;14.14
34901;BMP280;21112;51.976;5.660;2023-11-19T12:44:08;99747.03;;;13.92
34901;BMP280;21112;51.976;5.660;2023-11-19T12:46:36;99754.53;;;13.94
34901;BMP280;21112;51.976;5.660;2023-11-19T12:49:03;99760.00;;;14.02
34901;BMP280;21112;51.976;5.660;2023-11-19T12:51:31;99757.06;;;13.94
34901;BMP280;21112;51.976;5.660;2023-11-19T12:53:58;99757.38;;;13.88
34901;BMP280;21112;51.976;5.660;2023-11-19T12:56:25;99762.69;;;14.31
34901;BMP280;21112;51.976;5.660;2023-11-19T12:58:52;99761.03;;;14.30
34901;BMP280;21112;51.976;5.660;2023-11-19T13:01:20;99754.13;;;14.01
34901;BMP280;21112;51.976;5.660;2023-11-19T13:03:47;99763.97;;;13.90
34901;BMP280;21112;51.976;5.660;2023-11-19T13:06:16;99767.72;;;13.83
34901;BMP280;21112;51.976;5.660;2023-11-19T13:08:47;99773.63;;;13.82
34901;BMP280;21112;51.976;5.660;2023-11-19T13:11:17;99772.47;;;13.72
34901;BMP280;21112;51.976;5.660;2023-11-19T13:13:57;99770.72;;;13.57
34901;BMP280;21112;51.976;5.660;2023-11-19T13:16:26;99764.91;;;13.55
34901;BMP280;21112;51.976;5.660;2023-11-19T13:18:53;99762.53;;;13.52
34901;BMP280;21112;51.976;5.660;2023-11-19T13:21:20;99756.00;;;13.48
34901;BMP280;21112;51.976;5.660;2023-11-19T13:23:46;99754.31;;;13.49
34901;BMP280;21112;51.976;5.660;2023-11-19T13:26:13;99744.81;;;13.54
34901;BMP280;21112;51.976;5.660;2023-11-19T13:28:40;99735.13;;;13.62
34901;BMP280;21112;51.976;5.660;2023-11-19T13:31:06;99740.13;;;13.63
34901;BMP280;21112;51.976;5.660;2023-11-19T13:33:35;99737.59;;;13.63
34901;BMP280;21112;51.976;5.660;2023-11-19T13:36:02;99743.31;;;13.67
34901;BMP280;21112;51.976;5.660;2023-11-19T13:38:31;99735.63;;;13.68
34901;BMP280;21112;51.976;5.660;2023-11-19T13:40:58;99736.69;;;13.64
34901;BMP280;21112;51.976;5.660;2023-11-19T13:43:25;99737.72;;;13.60
34901;BMP280;21112;51.976;5.660;2023-11-19T13:45:53;99729.00;;;13.50
34901;BMP280;21112;51.976;5.660;2023-11-19T13:48:20;99741.63;;;13.50
34901;BMP280;21112;51.976;5.660;2023-11-19T13:50:48;99747.75;;;13.45
34901;BMP280;21112;51.976;5.660;2023-11-19T13:53:15;99744.50;;;13.43
34901;BMP280;21112;51.976;5.660;2023-11-19T13:55:41;99737.81;;;13.42
34901;BMP280;21112;51.976;5.660;2023-11-19T13:58:08;99730.94;;;13.45
34901;BMP280;21112;51.976;5.660;2023-11-19T14:00:35;99735.38;;;13.57
34901;BMP280;21112;51.976;5.660;2023-11-19T14:03:02;99735.50;;;13.54
34901;BMP280;21112;51.976;5.660;2023-11-19T14:05:29;99733.88;;;13.53
34901;BMP280;21112;51.976;5.660;2023-11-19T14:07:58;99742.78;;;13.60
34901;BMP280;21112;51.976;5.660;2023-11-19T14:10:26;99735.81;;;13.65
34901;BMP280;21112;51.976;5.660;2023-11-19T14:12:53;99725.53;;;13.68
34901;BMP280;21112;51.976;5.660;2023-11-19T14:15:20;99720.00;;;13.62
34901;BMP280;21112;51.976;5.660;2023-11-19T14:17:47;99722.88;;;13.54
34901;BMP280;21112;51.976;5.660;2023-11-19T14:20:17;99734.19;;;13.47
34901;BMP280;21112;51.976;5.660;2023-11-19T14:22:46;99731.59;;;13.32
34901;BMP280;21112;51.976;5.660;2023-11-19T14:25:15;99726.25;;;13.21
34901;BMP280;21112;51.976;5.660;2023-11-19T14:27:43;99714.91;;;13.12
34901;BMP280;21112;51.976;5.660;2023-11-19T14:30:12;99716.22;;;13.02
34901;BMP280;21112;51.976;5.660;2023-11-19T14:32:40;99725.03;;;12.94